Latest Weather Observations for Wilsons Promontory

IDV60801

Issued at 9:23 pm EDT Friday 26 February 2021 (issued every 10 minutes, with the page automatically refreshed every 10 minutes)

About weather observations | Map of weather stations | Latest weather observations for VIC | Other Formats
Station Details ID: 085096 Name: WILSONS PROMONTORY LIGHTHOUSE Lat: -39.13 Lon: 146.42 Height: 95.0 m
Data from the previous 72 hours. | See also: Recent months at Wilsons Promontory
Date/Time
EDT
Temp
°C
App
Temp
°C
Dew
Point
°C
Rel
Hum
%
Delta-T
°C
Wind Press
QNH
hPa
Press
MSL
hPa
Rain since
9am
mm
Dir  Spd
km/h
Gust
km/h
Spd
kts
Gust
kts
26/09:00pm 14.4 10.8 10.0 75 2.3 W 19 26 10 14 1013.8 1013.6 0.0
26/08:30pm 14.7 11.2 10.1 74 2.4 W 19 28 10 15 1013.6 - 0.0
26/08:00pm 14.9 11.4 10.1 73 2.5 W 19 28 10 15 1013.4 - 0.0
26/07:30pm 15.1 11.9 9.9 71 2.7 W 17 24 9 13 1013.3 - 0.0
26/07:00pm 15.9 11.3 9.8 67 3.2 W 24 33 13 18 1012.9 - 0.0
26/06:30pm 15.7 9.5 9.4 66 3.3 WSW 32 41 17 22 1012.6 - 0.0
26/06:00pm 15.7 9.5 9.4 66 3.3 WSW 32 39 17 21 1012.7 1012.5 0.0
26/05:30pm 16.2 9.0 9.2 63 3.6 WSW 37 46 20 25 1012.6 - 0.0
26/05:00pm 15.7 8.1 9.1 65 3.4 WSW 39 50 21 27 1012.3 - 0.0
26/04:30pm 15.9 7.2 8.4 61 3.8 WSW 44 52 24 28 1012.6 - 0.0
26/04:00pm 15.7 6.8 9.1 65 3.4 SW 46 56 25 30 1012.6 - 0.0
26/03:30pm 15.4 6.3 8.4 63 3.6 WSW 46 56 25 30 1012.6 - 0.0
26/03:00pm 15.3 5.8 8.5 64 3.5 WSW 48 57 26 31 1012.6 1012.4 0.0
26/02:34pm 15.9 7.4 8.6 62 3.7 WSW 43 61 23 33 1012.9 - 0.0
26/02:30pm 15.6 5.7 8.4 62 3.7 WSW 50 61 27 33 1012.7 - 0.0
26/02:17pm 15.6 7.0 8.1 61 3.8 WSW 43 61 23 33 1012.9 - 0.0
26/02:00pm 15.4 6.6 8.2 62 3.6 WSW 44 57 24 31 1012.7 - 0.0
26/01:30pm 15.4 5.0 7.9 61 3.8 WSW 52 59 28 32 1012.5 - 0.0
26/01:00pm 15.5 6.7 8.0 61 3.8 WSW 44 56 24 30 1012.9 - 0.0
26/12:45pm 15.7 7.1 8.2 61 3.8 WSW 43 61 23 33 1012.9 - 0.0
26/12:30pm 15.0 4.2 7.5 61 3.7 WSW 54 59 29 32 1012.7 - 0.0
26/12:00pm 15.3 5.4 6.6 56 4.3 WSW 48 56 26 30 1012.9 1012.7 0.0
26/11:30am 15.4 6.3 8.4 63 3.6 WSW 46 57 25 31 1012.8 - 0.0
26/11:00am 15.0 3.8 7.5 61 3.7 SW 56 63 30 34 1012.3 - 0.0
26/10:30am 15.0 3.2 7.3 60 3.8 WSW 59 67 32 36 1011.9 - 0.0
26/10:00am 14.9 2.9 6.7 58 4.0 SW 59 67 32 36 1011.6 - 0.0
26/09:51am 15.0 7.0 7.5 61 3.7 W 39 63 21 34 1012.0 - 0.0
26/09:30am 14.6 2.6 6.7 59 3.9 SW 59 67 32 36 1011.5 - 0.0
26/09:00am 14.6 2.8 7.6 63 3.5 WSW 59 70 32 38 1011.1 1010.9 9.2
26/08:30am 14.6 2.1 7.6 63 3.5 SW 63 72 34 39 1010.3 - 9.2
26/08:00am 14.3 4.8 8.3 67 3.0 SW 48 65 26 35 1010.4 - 9.2
26/07:58am 14.3 5.6 8.5 68 2.9 SW 44 65 24 35 1010.4 - 9.2
26/07:57am 14.3 5.8 8.5 68 2.9 SW 43 65 23 35 1010.3 - 9.2
26/07:56am 14.3 7.9 8.7 69 2.8 SSE 32 65 17 35 1010.2 - 9.2
26/07:55am 14.2 8.9 8.6 69 2.8 SSE 26 67 14 36 1010.3 - 9.2
26/07:30am 14.3 3.3 6.6 60 3.7 SW 54 72 29 39 1010.1 - 9.2
26/07:00am 13.8 2.8 9.3 74 2.3 SW 57 67 31 36 1009.8 - 9.2
26/06:58am 13.7 2.8 9.6 76 2.1 WSW 57 63 31 34 1010.0 - 9.2
26/06:56am 13.6 7.0 10.0 79 1.9 W 35 59 19 32 1010.2 - 9.2
26/06:36am 12.9 6.5 9.2 78 1.9 W 33 59 18 32 1010.1 - 9.2
26/06:30am 12.8 2.0 9.1 78 1.9 WSW 56 78 30 42 1009.7 - 9.2
26/06:15am 13.9 3.8 8.9 72 2.5 WSW 52 72 28 39 1009.1 - 9.2
26/06:00am 13.7 4.2 8.5 71 2.6 W 48 76 26 41 1009.4 1009.2 9.2
26/05:36am 14.1 2.9 8.3 68 2.9 SW 57 70 31 38 1008.3 - 9.2
26/05:32am 14.0 7.5 8.2 68 2.9 SW 32 72 17 39 1008.3 - 9.2
26/05:30am 13.9 8.1 8.1 68 2.9 SW 28 72 15 39 1008.4 - 9.2
26/05:00am 13.5 3.6 9.6 77 2.0 WSW 52 76 28 41 1008.1 - 9.2
26/04:43am 13.9 3.5 9.1 73 2.4 WSW 54 72 29 39 1008.8 - 9.2
26/04:30am 13.6 1.5 9.3 75 2.2 SW 63 76 34 41 1008.2 - 9.2
26/04:22am 13.5 0.9 9.0 74 2.3 SW 65 82 35 44 1008.1 - 9.2
26/04:19am 13.6 4.7 9.3 75 2.2 SW 46 87 25 47 1007.9 - 9.2
26/04:00am 14.0 -0.6 9.2 73 2.5 SW 76 82 41 44 1007.7 - 9.2
26/03:30am 14.0 3.4 9.8 76 2.2 WSW 56 69 30 37 1008.5 - 9.2
26/03:07am 13.9 2.6 9.5 75 2.3 WSW 59 78 32 42 1008.7 - 9.2
26/03:00am 14.2 1.7 9.4 73 2.5 WSW 65 78 35 42 1008.3 1008.1 9.2
26/02:40am 13.7 3.6 9.0 73 2.4 W 52 78 28 42 1008.6 - 9.2
26/02:30am 13.7 0.4 9.7 77 2.1 SW 70 83 38 45 1008.5 - 9.2
26/02:10am 14.2 -0.5 7.3 63 3.4 WSW 74 82 40 44 1008.2 - 9.2
26/02:00am 14.4 4.0 7.7 64 3.3 WSW 52 70 28 38 1008.8 - 9.2
26/01:55am 14.3 3.0 7.1 62 3.5 WSW 56 74 30 40 1008.7 - 9.2
26/01:46am 14.3 0.4 6.4 59 3.8 WSW 69 74 37 40 1008.6 - 9.2
26/01:30am 14.4 5.2 9.4 72 2.6 WSW 48 69 26 37 1008.8 - 9.2
26/01:25am 14.2 4.9 9.0 71 2.7 WSW 48 69 26 37 1009.1 - 9.2
26/01:21am 14.2 2.2 8.4 68 2.9 WSW 61 69 33 37 1008.8 - 9.2
26/01:04am 14.4 6.0 7.5 63 3.4 W 41 61 22 33 1009.1 - 9.2
26/01:00am 14.2 6.4 8.2 67 3.0 W 39 56 21 30 1009.3 - 9.2
26/12:30am 14.4 4.0 9.2 71 2.7 WSW 54 76 29 41 1009.0 - 9.2
26/12:07am 14.2 5.1 8.6 69 2.8 W 46 65 25 35 1009.0 - 9.2
26/12:00am 14.3 5.2 8.5 68 2.9 W 46 61 25 33 1009.0 1008.8 9.2
 
Date/Time
EDT
Temp
°C
App
Temp
°C
Dew
Point
°C
Rel
Hum
%
Delta-T
°C
Wind Press
QNH
hPa
Press
MSL
hPa
Rain since
9am
mm
Dir  Spd
km/h
Gust
km/h
Spd
kts
Gust
kts
25/11:43pm 14.4 4.4 7.9 65 3.2 WSW 50 69 27 37 1009.1 - 9.2
25/11:30pm 14.5 4.5 8.0 65 3.3 W 50 67 27 36 1008.9 - 9.2
25/11:14pm 14.5 5.1 7.1 61 3.6 W 46 67 25 36 1008.8 - 9.2
25/11:00pm 14.7 4.3 6.0 56 4.2 W 50 65 27 35 1009.0 - 9.2
25/10:30pm 14.8 4.5 8.3 65 3.3 WSW 52 70 28 38 1009.0 - 9.2
25/10:00pm 14.8 2.8 8.1 64 3.4 WSW 61 80 33 43 1008.2 - 9.2
25/09:38pm 14.7 4.8 8.4 66 3.2 WSW 50 80 27 43 1008.6 - 9.2
25/09:37pm 14.8 6.2 9.0 68 3.0 W 44 80 24 43 1008.8 - 9.2
25/09:30pm 14.7 1.6 8.4 66 3.2 WSW 67 78 36 42 1008.6 - 9.2
25/09:01pm 14.8 2.3 9.4 70 2.8 WSW 65 83 35 45 1008.3 - 9.2
25/09:00pm 14.9 2.1 9.7 71 2.7 WSW 67 83 36 45 1008.3 1008.1 9.2
25/08:38pm 14.6 1.7 10.6 77 2.1 WSW 69 76 37 41 1007.7 - 9.2
25/08:30pm 14.5 7.6 11.6 83 1.6 WSW 39 59 21 32 1008.4 - 9.2
25/08:27pm 14.0 7.4 11.5 85 1.3 W 37 59 20 32 1008.4 - 9.2
25/08:22pm 14.0 7.8 11.5 85 1.3 W 35 61 19 33 1008.5 - 9.2
25/08:00pm 14.1 3.5 12.0 87 1.1 WSW 59 78 32 42 1007.4 - 9.2
25/07:39pm 13.8 3.2 13.0 95 0.4 WSW 61 80 33 43 1007.4 - 9.0
25/07:30pm 13.8 2.2 13.5 98 0.2 WSW 67 78 36 42 1006.8 - 9.0
25/07:05pm 13.1 - 13.3 - - WSW 69 74 37 40 1006.5 - 9.0
25/07:00pm 13.4 - 13.6 - - WSW 50 69 27 37 1006.9 - 8.8
25/06:41pm 13.0 - 13.2 - - SW 52 70 28 38 1006.4 - 8.6
25/06:30pm 13.1 - 13.3 - - SW 61 74 33 40 1006.8 - 8.2
25/06:15pm 13.4 - 13.6 - - SW 59 78 32 42 1006.2 - 7.8
25/06:03pm 13.6 - 13.8 - - SW 61 70 33 38 1006.0 - 7.0
25/06:00pm 13.9 - 14.1 - - SW 43 70 23 38 1005.8 1005.5 7.0
25/05:56pm 14.0 - 14.2 - - SW 37 76 20 41 1006.0 - 7.0
25/05:30pm 14.3 5.6 13.7 96 0.3 W 52 85 28 46 1005.8 - 5.6
25/05:00pm 14.9 5.3 13.3 90 0.9 W 56 89 30 48 1005.6 - 3.8
25/04:51pm 15.2 3.4 11.8 80 1.8 W 65 83 35 45 1005.5 - 2.0
25/04:49pm 15.6 2.9 11.8 78 2.1 W 70 83 38 45 1005.2 - 0.6
25/04:48pm 15.9 8.1 11.7 76 2.3 W 44 83 24 45 1005.0 - 0.0
25/04:30pm 16.7 9.7 11.2 70 3.0 W 39 65 21 35 1005.9 - 0.0
25/04:00pm 16.7 10.1 11.2 70 3.0 W 37 69 20 37 1006.3 - 0.0
25/03:32pm 17.1 10.9 11.4 69 3.1 W 35 65 19 35 1006.4 - 0.0
25/03:30pm 17.1 10.9 11.4 69 3.1 W 35 52 19 28 1006.6 - 0.0
25/03:00pm 16.9 10.5 10.7 67 3.3 W 35 69 19 37 1006.7 1006.4 0.0
25/02:30pm 17.0 9.8 10.6 66 3.4 W 39 70 21 38 1007.0 - 0.0
25/02:00pm 17.0 9.3 10.1 64 3.7 W 41 65 22 35 1007.2 - 0.0
25/01:30pm 17.9 12.2 11.0 64 3.7 W 32 70 17 38 1007.5 - 0.0
25/01:14pm 17.1 7.0 10.5 65 3.5 W 54 74 29 40 1007.3 - 0.0
25/01:13pm 17.0 5.6 10.4 65 3.5 W 61 74 33 40 1007.1 - 0.0
25/01:00pm 17.3 9.9 11.1 67 3.4 W 41 80 22 43 1007.7 - 0.0
25/12:30pm 16.3 8.8 10.8 70 2.9 W 41 72 22 39 1007.9 - 0.0
25/12:00pm 16.0 8.3 10.3 69 3.0 W 41 69 22 37 1008.4 1008.2 0.0
25/11:30am 16.0 7.9 10.1 68 3.1 W 43 69 23 37 1009.0 - 0.0
25/11:00am 15.6 10.0 11.4 76 2.3 W 32 52 17 28 1009.1 - 0.0
25/10:31am 15.7 10.5 11.7 77 2.2 WNW 30 52 16 28 1009.6 - 0.0
25/10:30am 15.8 10.7 11.8 77 2.2 WNW 30 46 16 25 1009.6 - 0.0
25/10:06am 15.5 10.8 11.9 79 2.0 W 28 48 15 26 1009.8 - 0.0
25/10:00am 15.4 11.0 11.8 79 2.0 W 26 41 14 22 1009.8 - 0.0
25/09:30am 15.3 12.2 11.7 79 2.0 W 19 39 10 21 1010.1 - 0.0
25/09:00am 14.9 12.1 11.5 80 1.8 W 17 30 9 16 1010.2 1010.0 0.0
25/08:30am 15.0 13.6 11.0 77 2.1 WNW 9 24 5 13 1010.4 - 0.0
25/08:00am 14.6 12.2 10.2 75 2.3 WNW 13 22 7 12 1010.3 - 0.0
25/07:30am 14.6 11.9 10.2 75 2.3 W 15 24 8 13 1010.5 - 0.0
25/07:00am 14.6 11.5 10.2 75 2.3 WNW 17 22 9 12 1010.3 - 0.0
25/06:30am 14.5 11.3 10.1 75 2.3 W 17 32 9 17 1010.4 - 0.0
25/06:00am 14.3 12.2 9.9 75 2.3 NW 11 22 6 12 1010.4 1010.2 0.0
25/05:30am 14.5 10.4 10.1 75 2.3 WNW 22 28 12 15 1010.6 - 0.0
25/05:00am 14.5 11.3 9.9 74 2.4 WNW 17 20 9 11 1011.0 - 0.0
25/04:30am 14.5 10.9 9.7 73 2.5 W 19 20 10 11 1011.3 - 0.0
25/04:00am 14.4 11.4 9.2 71 2.7 W 15 19 8 10 1011.6 - 0.0
25/03:30am 14.7 12.5 9.3 70 2.8 W 11 15 6 8 1012.0 - 0.0
25/03:00am 14.7 13.2 9.1 69 2.9 W 7 9 4 5 1012.5 1012.3 0.0
25/02:30am 14.8 12.9 9.2 69 2.9 WNW 9 13 5 7 1013.1 - 0.0
25/02:00am 14.9 13.2 9.7 71 2.7 W 9 13 5 7 1013.9 - 0.0
25/01:30am 14.5 13.3 9.5 72 2.6 WNW 6 11 3 6 1014.3 - 0.0
25/01:00am 14.3 12.1 9.3 72 2.6 NNE 11 15 6 8 1014.6 - 0.0
25/12:30am 14.2 11.6 9.2 72 2.6 NNE 13 15 7 8 1015.0 - 0.0
25/12:00am 14.2 12.0 9.2 72 2.6 NNE 11 15 6 8 1015.2 1015.0 0.0
 
Date/Time
EDT
Temp
°C
App
Temp
°C
Dew
Point
°C
Rel
Hum
%
Delta-T
°C
Wind Press
QNH
hPa
Press
MSL
hPa
Rain since
9am
mm
Dir  Spd
km/h
Gust
km/h
Spd
kts
Gust
kts
24/11:30pm 14.0 11.5 8.4 69 2.8 NNE 11 13 6 7 1015.6 - 0.0
24/11:00pm 14.1 11.7 8.5 69 2.8 NNE 11 15 6 8 1016.0 - 0.0
24/10:30pm 14.1 11.7 8.7 70 2.7 NNE 11 15 6 8 1016.5 - 0.0
24/10:00pm 14.3 11.9 8.7 69 2.8 NNE 11 17 6 9 1016.7 - 0.0
24/09:30pm 14.1 12.3 8.1 67 3.0 N 7 11 4 6 1016.8 - 0.0
24/09:00pm 14.2 12.0 7.9 66 3.1 NE 9 13 5 7 1016.8 1016.6 0.0
24/08:30pm 14.1 11.8 7.6 65 3.2 NNE 9 11 5 6 1016.8 - 0.0
24/08:00pm 14.6 12.6 7.2 61 3.6 NNE 7 11 4 6 1016.8 - 0.0
24/07:30pm 14.9 12.5 7.2 60 3.8 ESE 9 13 5 7 1016.9 - 0.0
24/07:00pm 15.2 13.1 6.7 57 4.2 SSE 7 13 4 7 1016.9 - 0.0
24/06:30pm 15.5 12.3 7.0 57 4.2 SSE 13 17 7 9 1016.8 - 0.0
24/06:00pm 16.1 14.3 7.1 55 4.5 S 6 11 3 6 1016.9 1016.7 0.0
24/05:30pm 16.2 14.5 7.7 57 4.3 SSW 6 15 3 8 1017.0 - 0.0
24/05:00pm 16.5 14.6 7.7 56 4.4 WSW 7 11 4 6 1017.2 - 0.0
24/04:30pm 16.4 14.0 7.1 54 4.6 SW 9 17 5 9 1017.6 - 0.0
24/04:00pm 16.8 15.0 8.0 56 4.5 WSW 7 13 4 7 1017.8 - 0.0
24/03:30pm 16.7 14.2 8.1 57 4.4 SSW 11 24 6 13 1018.2 - 0.0
24/03:00pm 16.1 14.0 8.3 60 4.0 WSW 9 13 5 7 1018.7 1018.5 0.0
24/02:30pm 15.8 13.1 8.8 63 3.6 WSW 13 24 7 13 1019.0 - 0.0
24/02:00pm 15.8 13.4 8.8 63 3.6 W 11 19 6 10 1019.0 - 0.0
24/01:30pm 16.5 11.0 7.7 56 4.4 WSW 26 32 14 17 1019.3 - 0.0
24/01:00pm 16.3 10.9 7.8 57 4.3 WSW 26 35 14 19 1019.6 - 0.0
24/12:30pm 16.3 11.8 8.5 60 4.0 WSW 22 30 12 16 1020.0 - 0.0
24/12:00pm 15.9 11.6 7.7 58 4.1 WSW 20 30 11 16 1020.4 1020.2 0.0
24/11:30am 16.3 12.0 8.0 58 4.2 W 20 22 11 12 1020.5 - 0.0
24/11:00am 15.4 12.0 7.7 60 3.9 WNW 15 22 8 12 1020.8 - 0.0
24/10:30am 15.5 13.7 7.8 60 3.9 NW 7 13 4 7 1020.8 - 0.0
24/10:00am 14.2 11.5 7.3 63 3.4 WNW 11 17 6 9 1020.6 - 0.0
24/09:30am 13.7 9.8 7.2 65 3.2 WNW 17 24 9 13 1020.4 - 0.0
24/09:00am 13.6 11.2 8.7 72 2.5 WNW 11 17 6 9 1020.2 1020.0 0.0
24/08:30am 14.4 12.0 7.2 62 3.5 WNW 9 11 5 6 1019.8 - 0.0
24/08:00am 14.2 11.3 6.6 60 3.7 W 11 15 6 8 1019.6 - 0.0
24/07:30am 14.2 11.3 6.6 60 3.7 WNW 11 15 6 8 1019.4 - 0.0
24/07:00am 13.9 11.0 6.3 60 3.7 W 11 15 6 8 1019.1 - 0.0
24/06:30am 13.7 10.3 6.1 60 3.6 W 13 17 7 9 1018.7 - 0.0
24/06:00am 13.8 10.1 6.2 60 3.6 W 15 19 8 10 1018.7 1018.5 0.0
24/05:30am 14.2 10.9 6.3 59 3.8 WSW 13 20 7 11 1018.5 - 0.0
24/05:00am 14.4 8.3 6.5 59 3.8 WSW 28 35 15 19 1018.5 - 0.0
24/04:30am 14.3 7.3 5.9 57 4.0 WSW 32 39 17 21 1018.5 - 0.0
24/04:00am 14.3 7.7 6.2 58 3.9 WSW 30 37 16 20 1018.5 - 0.0
24/03:30am 14.5 8.1 6.8 60 3.8 SW 30 39 16 21 1018.5 - 0.0
24/03:00am 14.5 7.5 5.8 56 4.2 WSW 32 43 17 23 1018.7 1018.5 0.0
24/02:30am 14.6 7.7 7.2 61 3.6 SW 33 44 18 24 1018.7 - 0.0
24/02:00am 14.5 8.9 7.1 61 3.6 SW 26 37 14 20 1018.9 - 0.0
24/01:30am 14.6 8.8 6.4 58 4.0 SW 26 37 14 20 1019.2 - 0.0
24/01:00am 14.7 11.1 6.8 59 3.9 SSW 15 37 8 20 1019.3 - 0.0
24/12:30am 14.4 7.1 7.0 61 3.6 SW 35 43 19 23 1019.6 - 0.0
24/12:00am 14.5 9.3 7.3 62 3.5 WSW 24 33 13 18 1019.6 1019.4 0.0
 
Date/Time
EDT
Temp
°C
App
Temp
°C
Dew
Point
°C
Rel
Hum
%
Delta-T
°C
Wind Press
QNH
hPa
Press
MSL
hPa
Rain since
9am
mm
Dir  Spd
km/h
Gust
km/h
Spd
kts
Gust
kts
23/11:30pm 14.7 8.0 7.3 61 3.7 WSW 32 43 17 23 1019.7 - 0.0
23/11:00pm 14.7 8.0 7.3 61 3.7 SW 32 43 17 23 1019.5 - 0.0
23/10:30pm 14.7 8.3 6.8 59 3.9 SW 30 43 16 23 1019.5 - 0.0
23/10:06pm 14.8 7.9 7.4 61 3.7 SW 33 52 18 28 1019.1 - 0.0
23/10:00pm 14.7 7.0 7.0 60 3.8 WSW 37 46 20 25 1019.2 - 0.0
23/09:30pm 14.5 5.5 6.6 59 3.8 WSW 43 50 23 27 1019.2 - 0.0

Other formats

Comma delimited format used in spreadsheet applications
http://www.bom.gov.au/fwo/IDV60801/IDV60801.94893.axf

JavaScript Object Notation format (JSON) in row-major order
http://www.bom.gov.au/fwo/IDV60801/IDV60801.94893.json

Data quality

Most of these data are generated automatically and are frequently updated. Quality checks on data are not normally performed. It is possible for incorrect values to appear. Refer to information at About Latest Weather Observations and please check the disclaimer before using these data.